Time;durP1;ratioP1;P1;durP2;ratioP2;P2;SDS_P1;SDS_P2;PMS_P1;PMS_P2;Temp;Humidity;BMP_temperature;BMP_pressure;BME280_temperature;BME280_humidity;BME280_pressure;Samples;Min_cycle;Max_cycle;Signal;HPM_P1;HPM_P2
2024/01/20 00:00:49;;;;;;;;;;;;;;;-1.37;85.50;101146.69;104696;1292;61272;-58
2024/01/20 00:03:35;;;;;;;;;;;;;;;-1.38;85.52;101150.39;104748;1292;61494;-60
2024/01/20 00:06:21;;;;;;;;;;;;;;;-1.40;85.72;101149.64;104782;1292;76002;-60
2024/01/20 00:09:08;;;;;;;;;;;;;;;-1.43;86.15;101154.73;104729;1292;67955;-59
2024/01/20 00:11:54;;;;;;;;;;;;;;;-1.44;86.13;101149.45;104566;1294;71305;-61
2024/01/20 00:14:40;;;;;;;;;;;;;;;-1.49;86.43;101145.00;104716;1289;63385;-61
2024/01/20 00:17:26;;;;;;;;;;;;;;;-1.52;86.46;101144.03;104785;1292;61574;-60
2024/01/20 00:20:13;;;;;;;;;;;;;;;-1.54;86.67;101137.36;104646;1292;73196;-60
2024/01/20 00:22:59;;;;;;;;;;;;;;;-1.57;86.70;101140.48;104725;1292;70109;-59
2024/01/20 00:25:45;;;;;;;;;;;;;;;-1.58;86.95;101144.82;104808;1292;71741;-60
2024/01/20 00:28:31;;;;;;;;;;;;;;;-1.58;86.88;101146.20;104731;1290;61362;-60
2024/01/20 00:31:17;;;;;;;;;;;;;;;-1.58;87.11;101139.77;104738;1295;59803;-61
2024/01/20 00:34:03;;;;;;;;;;;;;;;-1.55;87.21;101142.21;104735;1292;73243;-59
2024/01/20 00:36:49;;;;;;;;;;;;;;;-1.53;86.99;101143.66;104696;1294;67357;-61
2024/01/20 00:39:36;;;;;;;;;;;;;;;-1.50;86.92;101145.48;104578;1291;71170;-60
2024/01/20 00:42:22;;;;;;;;;;;;;;;-1.48;87.14;101140.83;104757;1292;61326;-59
2024/01/20 00:45:08;;;;;;;;;;;;;;;-1.44;87.05;101141.85;104721;1290;61439;-58
2024/01/20 00:47:54;;;;;;;;;;;;;;;-1.41;87.23;101149.22;105988;1292;74391;-61
2024/01/20 00:50:40;;;;;;;;;;;;;;;-1.40;86.98;101153.52;106070;1291;67144;-61
2024/01/20 00:53:26;;;;;;;;;;;;;;;-1.37;87.05;101154.63;106063;1291;71394;-62
2024/01/20 00:56:12;;;;;;;;;;;;;;;-1.35;87.05;101161.67;106061;1290;59180;-61
2024/01/20 00:58:58;;;;;;;;;;;;;;;-1.29;87.24;101163.76;106056;1291;60027;-61
2024/01/20 01:01:44;;;;;;;;;;;;;;;-1.23;87.69;101161.27;106043;1291;73237;-61
2024/01/20 01:04:29;;;;;;;;;;;;;;;-1.22;90.01;101154.89;106096;1291;68141;-61
2024/01/20 01:07:15;;;;;;;;;;;;;;;-1.21;88.97;101155.30;106016;1294;72624;-61
2024/01/20 01:10:03;;;;;;;;;;;;;;;-1.18;88.42;101154.39;106043;1291;58963;-62
2024/01/20 01:12:49;;;;;;;;;;;;;;;-1.14;88.17;101155.73;106079;1291;59460;-61
2024/01/20 01:15:35;;;;;;;;;;;;;;;-1.10;88.11;101159.62;106020;1291;73956;-61
2024/01/20 01:18:21;;;;;;;;;;;;;;;-1.05;87.94;101163.19;106034;1291;69275;-61
2024/01/20 01:21:07;;;;;;;;;;;;;;;-1.01;87.80;101160.80;105969;1291;72050;-61
2024/01/20 01:23:53;;;;;;;;;;;;;;;-0.94;87.96;101166.13;106039;1290;59263;-62
2024/01/20 01:26:39;;;;;;;;;;;;;;;-0.89;87.76;101169.58;105940;1291;58919;-61
2024/01/20 01:29:25;;;;;;;;;;;;;;;-0.85;87.76;101173.27;106068;1290;73950;-62
2024/01/20 01:32:11;;;;;;;;;;;;;;;-0.84;87.84;101173.66;106072;1291;68150;-61
2024/01/20 01:34:56;;;;;;;;;;;;;;;-0.83;87.88;101172.52;106042;1291;70323;-61
2024/01/20 01:37:42;;;;;;;;;;;;;;;-0.83;88.29;101174.54;106000;1291;59041;-62
2024/01/20 01:40:28;;;;;;;;;;;;;;;-0.83;88.45;101176.21;106022;1291;60233;-61
2024/01/20 01:43:14;;;;;;;;;;;;;;;-0.83;88.48;101175.39;104799;1293;74170;-60
2024/01/20 01:46:00;;;;;;;;;;;;;;;-0.82;88.48;101172.02;104742;1292;67673;-60
2024/01/20 01:48:47;;;;;;;;;;;;;;;-0.87;91.07;101174.38;104576;1291;71238;-60
2024/01/20 01:51:33;;;;;;;;;;;;;;;-0.90;91.47;101175.62;104618;1292;61158;-60
2024/01/20 01:54:21;;;;;;;;;;;;;;;-0.92;90.32;101170.30;104531;1291;286871;-60
2024/01/20 01:57:08;;;;;;;;;;;;;;;-0.92;89.78;101174.19;104760;1292;72264;-60
2024/01/20 01:59:54;;;;;;;;;;;;;;;-0.91;88.96;101178.80;104789;1291;67137;-60
2024/01/20 02:02:40;;;;;;;;;;;;;;;-0.91;88.78;101183.19;104720;1292;71386;-60
2024/01/20 02:05:27;;;;;;;;;;;;;;;-0.89;88.15;101185.80;104674;1291;59807;-59
2024/01/20 02:08:13;;;;;;;;;;;;;;;-0.90;87.81;101186.60;104736;1291;59173;-61
2024/01/20 02:10:59;;;;;;;;;;;;;;;-0.88;87.63;101192.12;104700;1292;73330;-60
2024/01/20 02:13:45;;;;;;;;;;;;;;;-0.84;87.34;101190.42;104730;1294;67273;-60
2024/01/20 02:16:32;;;;;;;;;;;;;;;-0.82;87.39;101191.83;104778;1291;72133;-60
2024/01/20 02:19:18;;;;;;;;;;;;;;;-0.81;87.22;101189.52;104766;1291;63498;-59
2024/01/20 02:22:08;;;;;;;;;;;;;;;-0.78;87.18;101183.69;104755;1291;61183;-59
2024/01/20 02:24:55;;;;;;;;;;;;;;;-0.75;86.96;101186.54;104705;1290;73272;-59
2024/01/20 02:27:41;;;;;;;;;;;;;;;-0.73;87.00;101189.31;104635;1292;67354;-59
2024/01/20 02:30:27;;;;;;;;;;;;;;;-0.70;86.81;101189.76;104767;1292;72920;-61
2024/01/20 02:33:16;;;;;;;;;;;;;;;-0.70;86.37;101187.07;104706;1290;60780;-59
2024/01/20 02:36:03;;;;;;;;;;;;;;;-0.68;86.32;101184.61;104769;1291;61327;-60
2024/01/20 02:38:49;;;;;;;;;;;;;;;-0.67;86.29;101189.39;104682;1293;75959;-57
2024/01/20 02:41:35;;;;;;;;;;;;;;;-0.65;86.06;101191.14;104761;1290;67248;-60
2024/01/20 02:44:21;;;;;;;;;;;;;;;-0.64;86.10;101191.00;104715;1291;75194;-60
2024/01/20 02:47:07;;;;;;;;;;;;;;;-0.62;86.25;101195.48;104710;1291;61872;-61
2024/01/20 02:49:54;;;;;;;;;;;;;;;-0.60;86.02;101190.14;104675;1291;61183;-60
2024/01/20 02:52:40;;;;;;;;;;;;;;;-0.60;85.80;101185.90;104740;1291;75104;-60
2024/01/20 02:55:26;;;;;;;;;;;;;;;-0.60;85.74;101184.08;104815;1290;67167;-60
2024/01/20 02:58:12;;;;;;;;;;;;;;;-0.61;85.73;101186.41;104778;1292;73925;-60
2024/01/20 03:01:00;;;;;;;;;;;;;;;-0.61;85.55;101192.14;104645;1292;61444;-60
2024/01/20 03:03:46;;;;;;;;;;;;;;;-0.59;85.69;101192.89;104775;1291;61200;-60
2024/01/20 03:06:33;;;;;;;;;;;;;;;-0.58;85.62;101192.60;104727;1292;73264;-60
2024/01/20 03:09:19;;;;;;;;;;;;;;;-0.57;85.68;101197.39;104715;1293;73142;-61
2024/01/20 03:12:05;;;;;;;;;;;;;;;-0.54;85.57;101201.21;104762;1294;72167;-60
2024/01/20 03:14:52;;;;;;;;;;;;;;;-0.50;85.54;101204.55;104756;1292;61245;-60
2024/01/20 03:17:38;;;;;;;;;;;;;;;-0.47;85.45;101196.55;104753;1292;61280;-61
2024/01/20 03:20:24;;;;;;;;;;;;;;;-0.46;85.27;101190.48;104740;1291;74741;-61
2024/01/20 03:23:10;;;;;;;;;;;;;;;-0.46;85.43;101205.21;104743;1291;67575;-59
2024/01/20 03:25:56;;;;;;;;;;;;;;;-0.48;85.39;101206.35;104743;1290;73110;-60
2024/01/20 03:28:43;;;;;;;;;;;;;;;-0.46;85.49;101198.47;104737;1290;61264;-60
2024/01/20 03:31:30;;;;;;;;;;;;;;;-0.45;85.57;101201.70;104744;1291;61349;-58
2024/01/20 03:34:16;;;;;;;;;;;;;;;-0.45;85.53;101212.71;104722;1290;73277;-60
2024/01/20 03:37:02;;;;;;;;;;;;;;;-0.44;85.66;101214.09;104661;1294;67291;-60
2024/01/20 03:39:48;;;;;;;;;;;;;;;-0.40;85.52;101213.77;104747;1292;70248;-59
2024/01/20 03:42:35;;;;;;;;;;;;;;;-0.38;85.29;101207.73;104730;1292;61128;-59
2024/01/20 03:45:21;;;;;;;;;;;;;;;-0.36;85.31;101207.80;104727;1291;61290;-59
2024/01/20 03:48:07;;;;;;;;;;;;;;;-0.35;85.35;101202.11;104718;1294;75884;-60
2024/01/20 03:50:53;;;;;;;;;;;;;;;-0.32;85.41;101208.79;104731;1291;69267;-60
2024/01/20 03:53:39;;;;;;;;;;;;;;;-0.30;85.30;101199.22;104704;1294;73476;-60
2024/01/20 03:56:25;;;;;;;;;;;;;;;-0.29;85.41;101207.03;104761;1291;61311;-59
2024/01/20 03:59:11;;;;;;;;;;;;;;;-0.27;85.54;101208.98;104738;1291;59088;-60
2024/01/20 04:01:58;;;;;;;;;;;;;;;-0.25;85.54;101219.07;104713;1292;73665;-59
2024/01/20 04:04:44;;;;;;;;;;;;;;;-0.22;85.35;101222.56;104728;1292;67521;-59
2024/01/20 04:07:30;;;;;;;;;;;;;;;-0.21;85.44;101218.39;104733;1294;71666;-60
2024/01/20 04:10:17;;;;;;;;;;;;;;;-0.18;85.44;101231.53;101047;1291;5001986;-58
2024/01/20 04:13:03;;;;;;;;;;;;;;;-0.14;85.41;101229.64;104743;1292;61292;-60
2024/01/20 04:15:49;;;;;;;;;;;;;;;-0.11;85.45;101239.77;104727;1292;73439;-58
2024/01/20 04:18:35;;;;;;;;;;;;;;;-0.08;85.15;101232.58;105782;1291;260304;-60
2024/01/20 04:21:22;;;;;;;;;;;;;;;-0.05;85.30;101236.95;98622;1289;10002581;-61
2024/01/20 04:24:07;;;;;;;;;;;;;;;-0.02;85.31;101240.08;106084;1291;59040;-61
2024/01/20 04:26:53;;;;;;;;;;;;;;;0.00;85.20;101235.92;106032;1292;74103;-61
2024/01/20 04:29:39;;;;;;;;;;;;;;;0.04;85.17;101227.72;106069;1289;67253;-61
2024/01/20 04:32:25;;;;;;;;;;;;;;;0.08;84.80;101232.61;106003;1291;72360;-61
2024/01/20 04:35:11;;;;;;;;;;;;;;;0.12;84.66;101231.59;106036;1291;59118;-60
2024/01/20 04:37:57;;;;;;;;;;;;;;;0.14;84.57;101228.09;106062;1290;59811;-59
2024/01/20 04:40:42;;;;;;;;;;;;;;;0.15;84.78;101220.17;106002;1289;73399;-60
2024/01/20 04:43:28;;;;;;;;;;;;;;;0.16;84.79;101225.48;106052;1291;67434;-60
2024/01/20 04:46:15;;;;;;;;;;;;;;;0.17;84.54;101216.52;106033;1290;72302;-60
2024/01/20 04:49:01;;;;;;;;;;;;;;;0.16;84.74;101224.28;105921;1291;61420;-58
2024/01/20 04:51:47;;;;;;;;;;;;;;;0.14;84.59;101223.86;104743;1294;59122;-59
2024/01/20 04:54:33;;;;;;;;;;;;;;;0.13;84.60;101226.89;104717;1291;75901;-59
2024/01/20 04:57:20;;;;;;;;;;;;;;;0.10;84.57;101229.64;104755;1291;67462;-59
2024/01/20 05:00:07;;;;;;;;;;;;;;;0.07;84.59;101231.59;104764;1293;72014;-59
2024/01/20 05:02:53;;;;;;;;;;;;;;;0.04;84.66;101245.87;104737;1294;61186;-59
2024/01/20 05:05:39;;;;;;;;;;;;;;;0.05;84.66;101252.86;104802;1289;61413;-58
2024/01/20 05:08:26;;;;;;;;;;;;;;;0.07;84.55;101252.77;104761;1291;73045;-58
2024/01/20 05:11:12;;;;;;;;;;;;;;;0.08;84.66;101252.95;104726;1292;67955;-59
2024/01/20 05:13:58;;;;;;;;;;;;;;;0.08;84.57;101257.22;104776;1291;70596;-55
2024/01/20 05:16:44;;;;;;;;;;;;;;;0.10;84.49;101256.42;104814;1290;63389;-59
2024/01/20 05:19:30;;;;;;;;;;;;;;;0.11;84.59;101258.65;104725;1291;61160;-58
2024/01/20 05:22:17;;;;;;;;;;;;;;;0.11;84.55;101265.11;104760;1292;73215;-56
2024/01/20 05:25:04;;;;;;;;;;;;;;;0.13;84.52;101270.59;104688;1290;71131;-59
2024/01/20 05:27:50;;;;;;;;;;;;;;;0.13;84.53;101274.52;104764;1291;72233;-59
2024/01/20 05:30:36;;;;;;;;;;;;;;;0.15;84.34;101275.09;104716;1290;61401;-59
2024/01/20 05:33:22;;;;;;;;;;;;;;;0.17;84.44;101282.64;104742;1290;61179;-59
2024/01/20 05:36:10;;;;;;;;;;;;;;;0.17;84.39;101275.51;104700;1290;76052;-58
2024/01/20 05:38:56;;;;;;;;;;;;;;;0.17;84.46;101277.38;104667;1292;71243;-57
2024/01/20 05:41:42;;;;;;;;;;;;;;;0.18;84.31;101281.65;104438;1294;74092;-56
2024/01/20 05:44:29;;;;;;;;;;;;;;;0.18;84.26;101293.68;104454;1296;61313;-58
2024/01/20 05:47:15;;;;;;;;;;;;;;;0.19;84.28;101298.28;104492;1293;61261;-59
2024/01/20 05:50:02;;;;;;;;;;;;;;;0.20;84.22;101303.41;104505;1292;73251;-58
2024/01/20 05:52:50;;;;;;;;;;;;;;;0.19;84.29;101303.39;104468;1293;66255;-59
2024/01/20 05:55:36;;;;;;;;;;;;;;;0.19;84.19;101298.95;104470;1293;71293;-59
2024/01/20 05:58:22;;;;;;;;;;;;;;;0.19;84.35;101302.87;104495;1293;61273;-58
2024/01/20 06:01:09;;;;;;;;;;;;;;;0.18;84.22;101304.20;104451;1292;61175;-59
2024/01/20 06:03:56;;;;;;;;;;;;;;;0.18;84.11;101306.58;104491;1293;74296;-59
2024/01/20 06:06:42;;;;;;;;;;;;;;;0.19;84.09;101311.17;104415;1293;67205;-58
2024/01/20 06:09:28;;;;;;;;;;;;;;;0.19;84.19;101306.45;104483;1293;71252;-58
2024/01/20 06:12:14;;;;;;;;;;;;;;;0.18;84.05;101306.41;104511;1293;61080;-58
2024/01/20 06:15:00;;;;;;;;;;;;;;;0.18;83.96;101308.77;104457;1292;59260;-58
2024/01/20 06:17:47;;;;;;;;;;;;;;;0.17;84.08;101311.77;104477;1296;73661;-58
2024/01/20 06:20:33;;;;;;;;;;;;;;;0.15;83.96;101321.73;104424;1293;69343;-58
2024/01/20 06:23:19;;;;;;;;;;;;;;;0.15;83.93;101318.66;104463;1293;71293;-58
2024/01/20 06:26:05;;;;;;;;;;;;;;;0.11;83.87;101318.01;104457;1293;61299;-57
2024/01/20 06:28:51;;;;;;;;;;;;;;;0.07;83.88;101327.68;104486;1293;62876;-55
2024/01/20 06:31:37;;;;;;;;;;;;;;;0.03;83.91;101325.64;104513;1293;72190;-58
2024/01/20 06:34:24;;;;;;;;;;;;;;;-0.04;84.19;101329.84;104531;1292;67405;-58
2024/01/20 06:37:10;;;;;;;;;;;;;;;-0.10;84.00;101331.30;104476;1293;71235;-58
2024/01/20 06:39:56;;;;;;;;;;;;;;;-0.19;84.41;101328.22;104602;1291;61253;-59
2024/01/20 06:42:42;;;;;;;;;;;;;;;-0.27;84.33;101333.68;104742;1290;63566;-58
2024/01/20 06:45:33;;;;;;;;;;;;;;;-0.34;84.21;101335.43;104711;1291;73156;-59
2024/01/20 06:48:19;;;;;;;;;;;;;;;-0.42;84.04;101331.05;104757;1292;67496;-59
2024/01/20 06:51:06;;;;;;;;;;;;;;;-0.48;83.97;101337.09;104665;1289;71257;-58
2024/01/20 06:53:57;;;;;;;;;;;;;;;-0.50;83.78;101339.20;104782;1291;59673;-58
2024/01/20 06:56:43;;;;;;;;;;;;;;;-0.51;83.66;101341.00;104722;1291;61392;-59
2024/01/20 06:59:29;;;;;;;;;;;;;;;-0.51;83.68;101335.25;104724;1291;73324;-57
2024/01/20 07:02:15;;;;;;;;;;;;;;;-0.50;83.58;101344.61;104702;1291;67229;-59
2024/01/20 07:05:01;;;;;;;;;;;;;;;-0.51;83.61;101346.59;104680;1291;75532;-57
2024/01/20 07:07:48;;;;;;;;;;;;;;;-0.53;83.59;101348.23;104718;1292;61189;-58
2024/01/20 07:10:34;;;;;;;;;;;;;;;-0.52;83.56;101349.11;104731;1292;59414;-59
2024/01/20 07:13:20;;;;;;;;;;;;;;;-0.53;83.47;101351.77;104740;1289;76150;-59
2024/01/20 07:16:10;;;;;;;;;;;;;;;-0.52;83.61;101352.34;104811;1291;67799;-59
2024/01/20 07:18:56;;;;;;;;;;;;;;;-0.49;83.38;101351.95;104664;1294;71446;-59
2024/01/20 07:21:42;;;;;;;;;;;;;;;-0.45;83.47;101360.72;104722;1290;61308;-58
2024/01/20 07:24:29;;;;;;;;;;;;;;;-0.42;83.53;101362.73;104725;1294;61162;-58
2024/01/20 07:27:15;;;;;;;;;;;;;;;-0.37;83.49;101361.73;104617;1292;73246;-57
2024/01/20 07:30:01;;;;;;;;;;;;;;;-0.35;83.41;101359.77;104724;1291;68996;-58
2024/01/20 07:32:47;;;;;;;;;;;;;;;-0.32;83.42;101360.39;104725;1291;71172;-58
2024/01/20 07:35:33;;;;;;;;;;;;;;;-0.32;83.25;101365.34;104748;1291;61199;-59
2024/01/20 07:38:20;;;;;;;;;;;;;;;-0.31;83.60;101369.40;104767;1291;61180;-58
2024/01/20 07:41:09;;;;;;;;;;;;;;;-0.31;84.23;101371.28;104776;1292;72618;-58
2024/01/20 07:43:55;;;;;;;;;;;;;;;-0.26;84.06;101372.02;104655;1291;67235;-59
2024/01/20 07:46:41;;;;;;;;;;;;;;;-0.20;83.95;101374.10;104687;1292;71335;-57
2024/01/20 07:49:28;;;;;;;;;;;;;;;-0.17;83.83;101375.75;104743;1291;62451;-58
2024/01/20 07:52:14;;;;;;;;;;;;;;;-0.14;83.80;101383.34;104780;1289;61465;-57
2024/01/20 07:55:00;;;;;;;;;;;;;;;-0.12;83.73;101384.25;104803;1291;76013;-59
2024/01/20 07:57:47;;;;;;;;;;;;;;;-0.11;83.75;101382.44;104829;1291;70053;-58
2024/01/20 08:00:33;;;;;;;;;;;;;;;-0.08;83.75;101376.95;104829;1294;74262;-58
2024/01/20 08:03:19;;;;;;;;;;;;;;;-0.02;83.71;101376.84;104772;1292;61249;-58
2024/01/20 08:06:05;;;;;;;;;;;;;;;0.04;83.58;101376.54;104756;1291;61487;-58
2024/01/20 08:08:52;;;;;;;;;;;;;;;0.10;83.46;101377.95;104838;1290;77400;-56
2024/01/20 08:11:38;;;;;;;;;;;;;;;0.15;83.15;101376.65;104812;1291;68367;-53
2024/01/20 08:14:24;;;;;;;;;;;;;;;0.19;83.03;101378.15;104780;1294;72172;-56
2024/01/20 08:17:10;;;;;;;;;;;;;;;0.24;83.21;101381.23;104766;1292;61141;-55
2024/01/20 08:19:56;;;;;;;;;;;;;;;0.29;83.08;101379.55;104785;1290;61185;-55
2024/01/20 08:22:42;;;;;;;;;;;;;;;0.30;82.85;101380.28;104769;1291;77429;-56
2024/01/20 08:25:29;;;;;;;;;;;;;;;0.35;82.90;101378.08;104781;1291;67267;-55
2024/01/20 08:28:15;;;;;;;;;;;;;;;0.38;82.82;101383.09;104816;1290;73965;-55
2024/01/20 08:31:01;;;;;;;;;;;;;;;0.44;82.74;101387.06;104773;1291;61356;-56
2024/01/20 08:33:47;;;;;;;;;;;;;;;0.49;82.54;101387.59;104753;1292;61162;-56
2024/01/20 08:36:34;;;;;;;;;;;;;;;0.57;82.56;101388.73;104770;1291;77361;-55
2024/01/20 08:39:20;;;;;;;;;;;;;;;0.67;82.29;101395.52;104794;1292;71152;-54
2024/01/20 08:42:06;;;;;;;;;;;;;;;0.73;82.16;101408.29;104746;1291;72320;-56
2024/01/20 08:44:53;;;;;;;;;;;;;;;0.72;82.08;101403.17;104735;1292;61262;-55
2024/01/20 08:47:39;;;;;;;;;;;;;;;0.72;81.96;101414.02;104728;1290;61356;-55
2024/01/20 08:50:25;;;;;;;;;;;;;;;0.76;82.06;101411.13;104794;1292;74372;-55
2024/01/20 08:53:11;;;;;;;;;;;;;;;0.88;82.11;101411.73;104788;1292;69111;-57
2024/01/20 08:55:57;;;;;;;;;;;;;;;0.96;81.44;101408.11;104720;1294;72056;-56
2024/01/20 08:58:43;;;;;;;;;;;;;;;1.04;81.59;101415.01;104777;1292;61282;-56
2024/01/20 09:01:29;;;;;;;;;;;;;;;1.10;81.06;101423.36;104725;1290;61307;-56
2024/01/20 09:04:15;;;;;;;;;;;;;;;1.06;81.08;101420.34;104685;1291;72338;-54
2024/01/20 09:07:02;;;;;;;;;;;;;;;1.08;81.27;101421.77;104726;1291;67305;-54
2024/01/20 09:09:48;;;;;;;;;;;;;;;1.10;80.66;101418.45;104566;1290;71272;-53
2024/01/20 09:12:34;;;;;;;;;;;;;;;1.07;80.71;101421.55;104623;1292;61017;-53
2024/01/20 09:15:20;;;;;;;;;;;;;;;1.06;80.55;101421.16;104735;1290;61183;-53
2024/01/20 09:18:06;;;;;;;;;;;;;;;1.07;80.33;101425.48;104686;1291;73282;-50
2024/01/20 09:20:52;;;;;;;;;;;;;;;1.05;80.11;101428.30;104720;1292;66328;-52
2024/01/20 09:23:39;;;;;;;;;;;;;;;1.01;80.36;101428.33;104704;1290;75431;-55
2024/01/20 09:26:25;;;;;;;;;;;;;;;1.07;80.37;101434.61;104680;1291;61269;-51
2024/01/20 09:29:11;;;;;;;;;;;;;;;1.09;80.25;101438.44;104761;1292;61189;-53
2024/01/20 09:31:57;;;;;;;;;;;;;;;1.12;80.49;101429.71;104663;1292;73161;-54
2024/01/20 09:34:43;;;;;;;;;;;;;;;1.14;80.08;101431.64;104735;1291;70793;-51
2024/01/20 09:37:30;;;;;;;;;;;;;;;1.11;80.14;101436.65;104677;1290;75209;-53
2024/01/20 09:40:16;;;;;;;;;;;;;;;1.07;80.09;101439.38;104716;1292;60743;-53
2024/01/20 09:43:03;;;;;;;;;;;;;;;1.08;79.89;101441.63;104763;1292;59253;-53
2024/01/20 09:46:04;;;;;;;;;;;;;;;1.15;80.40;101449.00;49546;1294;10002604;-54
2024/01/20 09:49:00;;;;;;;;;;;;;;;1.26;80.05;101451.44;104762;1291;63722;-54
2024/01/20 09:51:51;;;;;;;;;;;;;;;1.29;80.14;101454.09;104505;1291;74531;-52
2024/01/20 09:54:41;;;;;;;;;;;;;;;1.27;79.71;101465.09;104479;1293;67147;-54
2024/01/20 09:57:28;;;;;;;;;;;;;;;1.24;79.62;101450.34;104449;1293;74001;-53
2024/01/20 10:00:16;;;;;;;;;;;;;;;1.24;79.80;101456.30;104494;1293;61496;-53
2024/01/20 10:03:05;;;;;;;;;;;;;;;1.28;79.61;101451.02;104431;1293;61498;-54
2024/01/20 10:05:57;;;;;;;;;;;;;;;1.28;79.39;101447.28;104504;1299;74989;-54
2024/01/20 10:08:43;;;;;;;;;;;;;;;1.31;79.34;101448.55;104556;1291;67296;-53
2024/01/20 10:11:30;;;;;;;;;;;;;;;1.34;79.31;101438.97;104340;1293;71091;-58
2024/01/20 10:14:16;;;;;;;;;;;;;;;1.43;79.24;101432.66;104462;1293;61285;-56
2024/01/20 10:17:02;;;;;;;;;;;;;;;1.50;78.86;101425.92;104438;1292;61191;-56
2024/01/20 10:19:49;;;;;;;;;;;;;;;1.58;79.09;101425.18;104361;1293;73251;-58
2024/01/20 10:22:35;;;;;;;;;;;;;;;1.71;78.87;101422.70;104471;1294;67230;-57
2024/01/20 10:25:21;;;;;;;;;;;;;;;1.80;78.32;101421.47;104336;1294;71385;-55
2024/01/20 10:28:07;;;;;;;;;;;;;;;1.90;78.19;101414.98;104389;1297;60069;-56
2024/01/20 10:30:53;;;;;;;;;;;;;;;1.96;78.23;101416.73;104459;1293;61207;-58
2024/01/20 10:33:40;;;;;;;;;;;;;;;2.22;78.53;101412.75;104470;1292;75991;-57
2024/01/20 10:36:27;;;;;;;;;;;;;;;2.51;77.95;101409.55;104504;1294;71573;-56
2024/01/20 10:39:17;;;;;;;;;;;;;;;2.84;77.78;101414.72;104473;1291;71190;-58
2024/01/20 10:42:04;;;;;;;;;;;;;;;2.79;76.57;101415.77;104440;1295;61293;-58
2024/01/20 10:44:56;;;;;;;;;;;;;;;2.92;76.80;101410.52;104524;1293;61406;-58
2024/01/20 10:47:48;;;;;;;;;;;;;;;2.92;76.38;101417.15;104472;1292;76045;-56
2024/01/20 10:50:35;;;;;;;;;;;;;;;3.07;76.34;101414.16;104552;1292;68180;-58
2024/01/20 10:53:22;;;;;;;;;;;;;;;3.00;75.12;101412.27;104496;1294;71292;-58
2024/01/20 10:56:10;;;;;;;;;;;;;;;2.84;75.57;101407.73;104554;1294;59156;-57
2024/01/20 10:59:00;;;;;;;;;;;;;;;2.88;75.56;101411.80;104470;1296;60336;-57
2024/01/20 11:01:46;;;;;;;;;;;;;;;2.83;75.97;101411.13;104433;1295;73473;-57
2024/01/20 11:04:34;;;;;;;;;;;;;;;2.77;75.32;101416.23;104485;1291;68151;-57
2024/01/20 11:07:22;;;;;;;;;;;;;;;2.71;75.21;101418.27;104465;1294;71097;-57
2024/01/20 11:10:08;;;;;;;;;;;;;;;2.49;75.40;101415.43;105747;1291;59415;-58
2024/01/20 11:12:58;;;;;;;;;;;;;;;2.33;75.38;101413.92;105752;1293;58916;-56
2024/01/20 11:15:49;;;;;;;;;;;;;;;2.33;76.01;101416.33;105826;1292;73320;-56
2024/01/20 11:18:38;;;;;;;;;;;;;;;2.37;75.69;101409.78;105759;1295;68331;-57
2024/01/20 11:21:25;;;;;;;;;;;;;;;2.38;75.36;101410.33;105735;1295;71485;-57
2024/01/20 11:24:11;;;;;;;;;;;;;;;2.43;75.44;101411.01;105790;1291;59296;-57
2024/01/20 11:27:02;;;;;;;;;;;;;;;2.51;75.56;101417.52;105715;1292;59621;-57
2024/01/20 11:29:48;;;;;;;;;;;;;;;2.38;74.80;101419.36;105814;1292;73396;-55
2024/01/20 11:32:34;;;;;;;;;;;;;;;2.19;75.02;101420.65;105805;1291;66984;-56
2024/01/20 11:35:20;;;;;;;;;;;;;;;2.13;75.34;101419.60;105769;1292;71709;-55
2024/01/20 11:38:06;;;;;;;;;;;;;;;2.10;75.26;101424.46;105763;1291;59039;-57
2024/01/20 11:40:56;;;;;;;;;;;;;;;2.03;75.63;101420.17;105795;1292;60322;-53
2024/01/20 11:43:48;;;;;;;;;;;;;;;1.97;75.69;101417.44;105785;1294;74631;-54
2024/01/20 11:46:33;;;;;;;;;;;;;;;1.98;75.61;101412.88;105788;1291;67396;-57
2024/01/20 11:49:27;;;;;;;;;;;;;;;1.99;75.77;101406.29;105776;1292;71441;-58
2024/01/20 11:52:13;;;;;;;;;;;;;;;1.99;75.82;101406.11;105859;1291;59272;-56
2024/01/20 11:54:59;;;;;;;;;;;;;;;1.98;75.68;101407.97;105885;1292;60259;-57
2024/01/20 11:57:45;;;;;;;;;;;;;;;2.08;75.88;101407.05;105865;1294;73375;-56
2024/01/20 12:00:31;;;;;;;;;;;;;;;2.12;75.73;101403.06;105951;1291;67911;-57
2024/01/20 12:03:17;;;;;;;;;;;;;;;2.18;75.73;101410.90;105889;1293;71465;-57
2024/01/20 12:06:03;;;;;;;;;;;;;;;2.30;75.57;101410.61;105868;1293;59353;-56
2024/01/20 12:08:49;;;;;;;;;;;;;;;2.31;75.38;101409.80;105912;1295;58981;-55
2024/01/20 12:11:35;;;;;;;;;;;;;;;2.38;75.50;101407.96;105905;1292;73270;-56
2024/01/20 12:14:21;;;;;;;;;;;;;;;2.36;75.35;101411.64;105879;1292;69097;-54
2024/01/20 12:17:08;;;;;;;;;;;;;;;2.33;75.35;101406.45;105908;1291;72525;-53
2024/01/20 12:19:55;;;;;;;;;;;;;;;2.38;75.48;101409.31;105934;1292;58961;-55
2024/01/20 12:22:40;;;;;;;;;;;;;;;2.38;75.21;101419.52;105945;1296;58940;-54
2024/01/20 12:25:27;;;;;;;;;;;;;;;2.21;75.35;101422.92;105902;1291;73446;-54
2024/01/20 12:28:12;;;;;;;;;;;;;;;2.08;75.46;101420.83;105903;1291;68972;-55
2024/01/20 12:30:58;;;;;;;;;;;;;;;2.01;75.75;101425.04;105910;1291;71304;-55
2024/01/20 12:33:45;;;;;;;;;;;;;;;1.96;75.69;101419.95;105955;1291;59322;-56
2024/01/20 12:36:31;;;;;;;;;;;;;;;1.90;75.92;101423.48;105881;1291;59407;-54
2024/01/20 12:39:18;;;;;;;;;;;;;;;1.93;75.96;101422.23;105917;1291;73413;-54
2024/01/20 12:42:04;;;;;;;;;;;;;;;1.94;76.10;101422.77;105937;1291;67555;-58
2024/01/20 12:44:50;;;;;;;;;;;;;;;2.04;76.10;101420.70;105382;1293;71226;-55
2024/01/20 12:47:36;;;;;;;;;;;;;;;2.09;75.94;101429.00;105741;1294;59433;-56
2024/01/20 12:50:22;;;;;;;;;;;;;;;2.04;75.95;101436.17;105658;1294;59476;-55
2024/01/20 12:53:07;;;;;;;;;;;;;;;2.00;75.98;101438.09;105633;1294;73228;-56
2024/01/20 12:55:53;;;;;;;;;;;;;;;1.95;75.94;101440.83;105593;1294;66815;-55
2024/01/20 12:58:39;;;;;;;;;;;;;;;1.93;76.40;101444.00;105663;1294;71339;-54
2024/01/20 13:01:25;;;;;;;;;;;;;;;1.91;76.34;101448.36;105688;1294;59090;-56
2024/01/20 13:04:11;;;;;;;;;;;;;;;1.86;76.27;101455.84;105702;1294;59434;-55
2024/01/20 13:06:57;;;;;;;;;;;;;;;1.81;76.41;101458.05;105608;1295;74892;-54
2024/01/20 13:09:43;;;;;;;;;;;;;;;1.78;76.39;101456.77;105594;1294;69019;-55
2024/01/20 13:12:29;;;;;;;;;;;;;;;1.73;76.61;101456.61;105480;1298;70731;-55
2024/01/20 13:15:14;;;;;;;;;;;;;;;1.74;76.64;101462.92;105519;1293;59020;-54
2024/01/20 13:18:00;;;;;;;;;;;;;;;1.75;76.65;101467.55;105607;1294;60050;-55
2024/01/20 13:20:46;;;;;;;;;;;;;;;1.75;76.68;101469.92;105615;1294;73376;-55
2024/01/20 13:23:32;;;;;;;;;;;;;;;1.78;76.68;101470.36;105619;1294;67883;-55
2024/01/20 13:26:18;;;;;;;;;;;;;;;1.79;76.70;101470.25;105602;1295;71255;-55
2024/01/20 13:29:04;;;;;;;;;;;;;;;1.78;76.68;101470.50;105581;1293;59017;-55
2024/01/20 13:31:50;;;;;;;;;;;;;;;1.74;76.72;101484.17;105722;1295;59437;-54
2024/01/20 13:34:36;;;;;;;;;;;;;;;1.71;76.84;101488.48;105704;1297;74468;-54
2024/01/20 13:37:22;;;;;;;;;;;;;;;1.70;76.87;101484.18;105642;1295;67454;-53
2024/01/20 13:40:09;;;;;;;;;;;;;;;1.71;76.97;101486.42;105651;1294;72095;-55
2024/01/20 13:42:55;;;;;;;;;;;;;;;1.71;77.06;101493.55;105665;1293;59100;-54
2024/01/20 13:45:41;;;;;;;;;;;;;;;1.73;77.05;101492.96;105623;1294;59336;-54
2024/01/20 13:48:27;;;;;;;;;;;;;;;1.74;77.21;101489.78;105608;1293;74129;-54
2024/01/20 13:51:13;;;;;;;;;;;;;;;1.77;77.10;101489.38;105657;1296;67537;-55
2024/01/20 13:54:01;;;;;;;;;;;;;;;1.76;77.09;101504.13;105267;1296;407075;-53
2024/01/20 13:56:48;;;;;;;;;;;;;;;1.76;77.15;101502.92;105605;1295;59017;-54
2024/01/20 13:59:34;;;;;;;;;;;;;;;1.75;77.06;101512.75;105581;1294;60248;-54
2024/01/20 14:02:20;;;;;;;;;;;;;;;1.71;77.15;101517.89;105607;1294;74097;-54
2024/01/20 14:05:15;;;;;;;;;;;;;;;1.69;77.24;101524.95;105642;1294;69337;-57
2024/01/20 14:08:01;;;;;;;;;;;;;;;1.68;77.31;101530.69;105570;1294;71395;-53
2024/01/20 14:10:52;;;;;;;;;;;;;;;1.69;77.34;101536.16;105618;1297;58804;-53